Time;durP1;ratioP1;P1;durP2;ratioP2;P2;SDS_P1;SDS_P2;PMS_P1;PMS_P2;Temp;Humidity;BMP_temperature;BMP_pressure;BME280_temperature;BME280_humidity;BME280_pressure;Samples;Min_cycle;Max_cycle;Signal;HPM_P1;HPM_P2
2022/08/11 00:01:13;;;;;;;3.20;3.00;;;19.20;99.90;;;;;;4843430;29;20821;-60
2022/08/11 00:03:49;;;;;;;3.50;3.20;;;19.20;99.90;;;;;;4843092;29;20342;-61
2022/08/11 00:06:26;;;;;;;3.50;3.20;;;19.10;99.90;;;;;;4840920;29;20234;-61
2022/08/11 00:08:55;;;;;;;7.50;3.60;;;19.10;99.90;;;;;;4845972;29;20207;-60
2022/08/11 00:11:32;;;;;;;4.37;3.20;;;19.00;99.90;;;;;;4843264;29;20211;-60
2022/08/11 00:14:02;;;;;;;5.63;3.73;;;18.90;99.90;;;;;;4840541;29;20203;-60
2022/08/11 00:16:32;;;;;;;3.67;3.50;;;18.80;99.90;;;;;;4828525;29;20199;-60
2022/08/11 00:19:03;;;;;;;5.90;4.00;;;18.70;99.90;;;;;;4843438;29;20651;-60
2022/08/11 00:21:40;;;;;;;4.13;3.83;;;18.60;99.90;;;;;;4846131;29;20595;-60
2022/08/11 00:24:33;;;;;;;3.73;3.43;;;18.50;99.90;;;;;;4845468;29;20219;-60
2022/08/11 00:27:21;;;;;;;5.40;3.47;;;18.40;99.90;;;;;;4847767;29;20211;-60
2022/08/11 00:29:53;;;;;;;3.87;3.67;;;18.30;99.90;;;;;;4846908;29;20206;-60
2022/08/11 00:32:22;;;;;;;6.70;3.70;;;18.30;99.90;;;;;;4851789;29;20290;-60
2022/08/11 00:34:53;;;;;;;4.07;3.77;;;18.20;99.90;;;;;;4848065;29;20207;-60
2022/08/11 00:37:48;;;;;;;5.50;3.10;;;18.20;99.90;;;;;;4844460;29;20219;-60
2022/08/11 00:40:23;;;;;;;3.57;3.40;;;18.10;99.90;;;;;;4843774;29;20207;-60
2022/08/11 00:43:01;;;;;;;3.70;3.37;;;18.00;99.90;;;;;;4845875;29;20286;-60
2022/08/11 00:45:34;;;;;;;3.63;3.33;;;18.00;99.90;;;;;;4847547;29;20196;-60
2022/08/11 00:48:11;;;;;;;5.40;3.40;;;17.90;99.90;;;;;;4847424;29;20659;-60
2022/08/11 00:50:51;;;;;;;3.90;3.60;;;17.90;99.90;;;;;;4843230;29;20218;-60
2022/08/11 00:53:45;;;;;;;7.50;3.37;;;17.80;99.90;;;;;;4845045;29;20281;-60
2022/08/11 00:57:07;;;;;;;3.60;3.33;;;17.80;99.90;;;;;;4851614;29;20295;-61
2022/08/11 01:00:09;;;;;;;4.10;3.20;;;17.80;99.90;;;;;;4851077;29;20233;-60
2022/08/11 01:03:11;;;;;;;5.10;3.73;;;17.70;99.90;;;;;;4848105;29;20208;-60
2022/08/11 01:06:19;;;;;;;3.87;3.53;;;17.70;99.90;;;;;;4833308;29;20192;-60
2022/08/11 01:09:21;;;;;;;7.03;3.70;;;17.70;99.90;;;;;;4849132;29;20287;-60
2022/08/11 01:12:35;;;;;;;4.07;3.73;;;17.60;99.90;;;;;;4844653;29;20222;-60
2022/08/11 01:15:40;;;;;;;4.30;3.53;;;17.60;99.90;;;;;;4795444;29;20749;-60
2022/08/11 01:19:03;;;;;;;3.67;3.47;;;17.60;99.90;;;;;;4793037;29;20213;-60
2022/08/11 01:22:21;;;;;;;3.63;3.43;;;17.50;99.90;;;;;;4844114;29;20215;-60
2022/08/11 01:25:44;;;;;;;9.70;3.50;;;17.50;99.90;;;;;;4823409;29;20429;-61
2022/08/11 01:29:13;;;;;;;3.93;3.57;;;17.40;99.90;;;;;;4849125;29;20203;-60
2022/08/11 01:32:18;;;;;;;3.67;3.37;;;17.30;99.90;;;;;;4844000;29;20201;-60
2022/08/11 01:35:20;;;;;;;4.70;3.97;;;17.30;99.90;;;;;;4846322;29;20196;-61
2022/08/11 01:38:39;;;;;;;4.10;3.83;;;17.20;99.90;;;;;;4848926;29;20208;-60
2022/08/11 01:45:00;;;;;;;3.90;3.60;;;17.10;99.90;;;;;;4844368;29;20255;-60
2022/08/11 01:47:53;;;;;;;3.47;3.37;;;17.00;99.90;;;;;;4798856;29;20317;-60
2022/08/11 01:50:36;;;;;;;5.10;3.93;;;17.00;99.90;;;;;;4845994;29;20206;-60
2022/08/11 01:53:16;;;;;;;3.87;3.57;;;17.00;99.90;;;;;;4845166;29;20209;-61
2022/08/11 01:55:56;;;;;;;3.93;3.60;;;17.00;99.90;;;;;;4843522;29;20228;-60
2022/08/11 01:58:33;;;;;;;4.20;4.00;;;17.00;99.90;;;;;;4845486;29;20267;-61
2022/08/11 02:01:38;;;;;;;3.97;3.67;;;16.90;99.90;;;;;;4845244;29;20215;-60
2022/08/11 02:04:18;;;;;;;3.97;3.67;;;17.00;99.90;;;;;;4846416;29;20230;-61
2022/08/11 02:06:57;;;;;;;3.80;3.60;;;17.00;99.90;;;;;;4844783;29;20289;-60
2022/08/11 02:11:29;;;;;;;4.10;3.50;;;17.00;99.90;;;;;;4845763;29;20198;-60
2022/08/11 02:13:13;;;;;;;4.33;3.40;;;16.90;99.90;;;;;;4837443;29;20207;-60
2022/08/11 02:15:49;;;;;;;5.47;3.63;;;16.90;99.90;;;;;;4845832;29;20278;-60
2022/08/11 02:18:23;;;;;;;4.10;3.80;;;16.80;99.90;;;;;;4844961;29;20440;-60
2022/08/11 02:23:52;;;;;;;4.43;4.10;;;16.80;99.90;;;;;;4858758;29;20223;-60
2022/08/11 02:26:41;;;;;;;3.63;3.43;;;16.70;99.90;;;;;;4846874;29;20252;-61
2022/08/11 02:29:18;;;;;;;3.83;3.50;;;16.70;99.90;;;;;;4846385;29;20297;-60
2022/08/11 02:35:17;;;;;;;4.20;3.90;;;16.70;99.90;;;;;;4846191;29;20243;-60
2022/08/11 02:37:53;;;;;;;10.27;3.90;;;16.70;99.90;;;;;;4844429;29;20210;-60
2022/08/11 02:40:34;;;;;;;4.17;3.70;;;16.60;99.90;;;;;;4846577;29;20208;-60
2022/08/11 02:43:11;;;;;;;3.50;3.40;;;16.60;99.90;;;;;;4843332;29;20208;-60
2022/08/11 02:45:53;;;;;;;4.33;3.90;;;16.60;99.90;;;;;;4849537;29;20219;-60
2022/08/11 02:51:35;;;;;;;4.53;4.10;;;16.50;99.90;;;;;;4842127;29;20209;-61
2022/08/11 02:54:12;;;;;;;4.03;3.73;;;16.50;99.90;;;;;;4847057;29;20230;-60
2022/08/11 02:56:54;;;;;;;4.00;3.60;;;16.40;99.90;;;;;;4844240;29;20207;-60
2022/08/11 02:59:52;;;;;;;4.57;4.10;;;16.40;99.90;;;;;;4848025;29;20208;-61
2022/08/11 03:02:53;;;;;;;4.40;3.97;;;16.40;99.90;;;;;;4845626;29;20205;-60
2022/08/11 03:05:31;;;;;;;7.10;4.07;;;16.40;99.90;;;;;;4840796;29;20859;-60
2022/08/11 03:08:14;;;;;;;4.70;4.30;;;16.30;99.90;;;;;;4847071;29;20279;-60
2022/08/11 03:16:43;;;;;;;4.60;3.87;;;16.30;99.90;;;;;;4841871;29;20284;-60
2022/08/11 03:16:47;;;;;;;4.20;3.80;;;16.20;99.90;;;;;;4844717;29;20210;-61
2022/08/11 03:19:24;;;;;;;3.90;3.60;;;16.20;99.90;;;;;;4846466;29;20209;-60
2022/08/11 03:22:02;;;;;;;4.00;3.70;;;16.20;99.90;;;;;;4861299;29;20286;-60
2022/08/11 03:24:49;;;;;;;4.20;3.90;;;16.10;99.90;;;;;;4858386;29;20211;-60
2022/08/11 03:27:35;;;;;;;5.30;3.80;;;16.10;99.90;;;;;;4844936;29;20203;-61
2022/08/11 03:30:14;;;;;;;3.67;3.47;;;16.10;99.90;;;;;;4844550;29;21855;-60
2022/08/11 03:36:01;;;;;;;5.00;3.70;;;16.00;99.90;;;;;;4811136;29;21025;-60
2022/08/11 03:38:43;;;;;;;4.43;4.10;;;16.00;99.90;;;;;;4842126;29;20237;-60
2022/08/11 03:44:37;;;;;;;6.70;3.57;;;15.90;99.90;;;;;;4842552;29;20245;-60
2022/08/11 03:47:30;;;;;;;4.30;4.00;;;15.90;99.90;;;;;;4849847;29;20218;-60
2022/08/11 03:50:10;;;;;;;4.77;3.73;;;15.90;99.90;;;;;;4839679;29;20657;-59
2022/08/11 03:52:51;;;;;;;3.93;3.70;;;15.90;99.90;;;;;;4844741;29;20212;-60
2022/08/11 03:55:43;;;;;;;5.93;4.10;;;15.80;99.90;;;;;;4840638;29;20205;-60
2022/08/11 03:58:42;;;;;;;4.37;3.97;;;15.90;99.90;;;;;;4841663;29;20424;-61
2022/08/11 04:01:58;;;;;;;6.60;4.50;;;15.90;99.90;;;;;;4831057;29;20216;-60
2022/08/11 04:05:00;;;;;;;5.20;3.97;;;15.90;99.90;;;;;;4810585;29;20209;-60
2022/08/11 04:08:14;;;;;;;4.53;4.10;;;15.80;99.90;;;;;;4853672;29;20224;-59
2022/08/11 04:11:18;;;;;;;5.47;4.30;;;15.80;99.90;;;;;;4842416;29;20303;-59
2022/08/11 04:17:52;;;;;;;4.40;4.10;;;15.80;99.90;;;;;;4841885;29;20208;-60
2022/08/11 04:20:57;;;;;;;4.30;4.00;;;15.80;99.90;;;;;;4800863;29;20212;-59
2022/08/11 04:23:42;;;;;;;4.30;4.10;;;15.70;99.90;;;;;;4842632;29;20797;-60
2022/08/11 04:26:57;;;;;;;6.47;4.50;;;15.70;99.90;;;;;;4838584;29;20227;-60
2022/08/11 04:30:05;;;;;;;5.17;4.70;;;15.70;99.90;;;;;;4845886;29;20212;-60
2022/08/11 04:33:30;;;;;;;4.70;4.13;;;15.70;99.90;;;;;;4842731;29;20234;-60
2022/08/11 04:37:31;;;;;;;6.63;4.50;;;15.70;99.90;;;;;;4786090;29;20245;-60
2022/08/11 04:39:28;;;;;;;4.70;4.30;;;15.70;99.90;;;;;;4773045;29;20300;-60
2022/08/11 04:45:46;;;;;;;8.00;4.43;;;15.60;99.90;;;;;;4844241;29;20291;-60
2022/08/11 05:01:45;;;;;;;10.37;4.40;;;15.70;99.90;;;;;;4844363;29;20208;-59
2022/08/11 05:08:09;;;;;;;8.03;5.23;;;15.80;99.90;;;;;;4842675;29;20588;-60
2022/08/11 05:10:56;;;;;;;5.77;5.17;;;15.90;99.90;;;;;;4847800;29;20276;-60
2022/08/11 05:36:18;;;;;;;9.00;6.17;;;16.80;99.90;;;;;;4845811;29;20715;-60
2022/08/11 05:58:37;;;;;;;7.77;5.63;;;18.40;99.90;;;;;;4858667;29;20310;-60
2022/08/11 06:01:14;;;;;;;7.07;5.20;;;18.50;99.90;;;;;;4852026;29;20210;-60
2022/08/11 06:06:32;;;;;;;10.17;5.63;;;18.80;99.90;;;;;;4847252;29;20226;-60
2022/08/11 06:09:01;;;;;;;9.77;5.17;;;19.00;99.90;;;;;;4836414;29;20203;-60
2022/08/11 06:11:31;;;;;;;8.30;5.60;;;19.10;99.90;;;;;;4845162;29;20226;-60
2022/08/11 06:14:14;;;;;;;6.50;5.90;;;19.30;99.90;;;;;;4849079;29;20596;-60
2022/08/11 06:16:48;;;;;;;8.53;6.03;;;19.40;99.90;;;;;;4845382;29;20203;-60
2022/08/11 06:19:20;;;;;;;6.70;5.47;;;19.60;99.90;;;;;;4845025;29;20286;-60
2022/08/11 06:21:50;;;;;;;13.73;6.30;;;19.80;99.90;;;;;;4846362;29;20282;-60
2022/08/11 06:24:19;;;;;;;13.67;6.07;;;19.90;99.90;;;;;;4845357;29;20191;-60
2022/08/11 06:26:50;;;;;;;14.00;6.27;;;20.10;99.90;;;;;;4848311;29;20936;-60
2022/08/11 06:29:48;;;;;;;11.73;5.73;;;20.30;99.90;;;;;;4845127;29;20199;-60
2022/08/11 06:32:27;;;;;;;10.60;6.17;;;20.40;99.90;;;;;;4850455;29;20234;-60
2022/08/11 06:35:08;;;;;;;8.57;5.83;;;20.60;99.90;;;;;;4848452;29;20209;-60
2022/08/11 06:37:53;;;;;;;7.87;5.27;;;20.90;99.90;;;;;;4844432;29;20202;-59
2022/08/11 06:40:38;;;;;;;9.37;5.60;;;21.00;99.90;;;;;;4842020;29;20741;-60
2022/08/11 06:43:16;;;;;;;7.43;5.70;;;21.10;99.90;;;;;;4848049;29;20257;-60
2022/08/11 06:45:53;;;;;;;11.67;5.90;;;21.30;99.90;;;;;;4852194;29;20227;-60
2022/08/11 06:48:24;;;;;;;8.90;5.47;;;21.50;99.90;;;;;;4847228;29;20195;-60
2022/08/11 06:51:12;;;;;;;12.73;5.93;;;21.60;99.90;;;;;;4849155;29;20199;-60
2022/08/11 06:53:44;;;;;;;12.57;6.10;;;21.90;99.90;;;;;;4843760;29;20286;-60
2022/08/11 07:02:33;;;;;;;9.27;5.80;;;22.40;99.90;;;;;;4839643;29;20204;-60
2022/08/11 07:05:10;;;;;;;9.87;5.60;;;22.50;99.90;;;;;;4852216;29;20203;-60
2022/08/11 07:17:11;;;;;;;11.03;4.80;;;23.30;99.90;;;;;;4852564;29;20208;-60
2022/08/11 07:31:14;;;;;;;6.07;4.97;;;24.20;99.90;;;;;;4843407;29;20777;-60
2022/08/11 07:33:46;;;;;;;6.93;4.37;;;24.40;99.90;;;;;;4846891;29;20219;-60
2022/08/11 07:36:39;;;;;;;5.10;3.90;;;24.60;99.90;;;;;;4851504;29;20243;-60
2022/08/11 07:39:19;;;;;;;5.10;3.83;;;24.90;99.90;;;;;;4852764;29;20653;-60
2022/08/11 07:41:49;;;;;;;7.40;4.17;;;25.10;99.90;;;;;;4844965;29;20246;-60
2022/08/11 07:44:18;;;;;;;6.07;3.83;;;25.30;99.90;;;;;;4846142;29;20237;-61
2022/08/11 07:52:32;;;;;;;4.20;3.60;;;25.80;99.90;;;;;;4845905;29;20274;-60
2022/08/11 07:55:05;;;;;;;6.40;3.83;;;25.90;99.90;;;;;;4846975;29;20648;-60
2022/08/11 08:17:56;;;;;;;8.85;3.78;;;27.40;99.90;;;;;;4849849;29;20249;-61
2022/08/11 08:20:48;;;;;;;3.47;3.17;;;27.60;99.90;;;;;;4852918;29;20287;-61
2022/08/11 08:23:31;;;;;;;3.63;3.42;;;27.80;99.90;;;;;;4848768;29;20216;-61
2022/08/11 08:26:04;;;;;;;3.50;3.20;;;28.00;99.90;;;;;;4847466;29;20204;-61
2022/08/11 08:28:45;;;;;;;2.95;2.75;;;28.20;99.90;;;;;;4850387;29;20614;-61
2022/08/11 08:31:14;;;;;;;7.32;3.03;;;28.50;99.90;;;;;;4848875;29;20228;-61
2022/08/11 08:33:43;;;;;;;4.63;3.20;;;28.60;99.90;;;;;;4849935;29;20191;-61
2022/08/11 08:36:13;;;;;;;3.85;3.30;;;28.80;99.90;;;;;;4841857;29;20242;-62
2022/08/11 08:38:46;;;;;;;3.45;3.22;;;29.00;99.90;;;;;;4845517;29;20214;-61
2022/08/11 08:41:18;;;;;;;5.45;3.13;;;29.10;99.90;;;;;;4845757;29;21031;-61
2022/08/11 08:43:51;;;;;;;3.47;3.28;;;29.10;99.90;;;;;;4848412;29;20202;-61
2022/08/11 08:46:25;;;;;;;5.15;3.22;;;29.20;99.90;;;;;;4850083;29;20353;-61
2022/08/11 08:48:55;;;;;;;4.95;3.35;;;29.50;99.90;;;;;;4851653;29;20653;-61
2022/08/11 08:51:36;;;;;;;2.95;2.70;;;29.60;99.90;;;;;;4850851;29;20200;-61
2022/08/11 08:54:30;;;;;;;6.65;2.92;;;29.80;99.90;;;;;;4849226;29;20325;-61
2022/08/11 08:57:04;;;;;;;3.30;2.85;;;30.10;99.90;;;;;;4851253;29;20204;-61
2022/08/11 08:59:41;;;;;;;3.75;3.10;;;30.40;99.90;;;;;;4853062;29;20670;-60
2022/08/11 09:02:18;;;;;;;4.38;2.80;;;30.40;99.90;;;;;;4856972;29;20575;-61
2022/08/11 09:05:02;;;;;;;3.35;2.83;;;30.70;99.90;;;;;;4853336;29;20204;-61
2022/08/11 09:07:32;;;;;;;4.95;3.08;;;31.10;99.90;;;;;;4852221;29;20268;-62
2022/08/11 09:10:09;;;;;;;3.28;3.00;;;31.00;99.90;;;;;;4852850;29;20674;-61
2022/08/11 09:12:41;;;;;;;6.90;2.90;;;31.00;99.90;;;;;;4849024;29;20209;-61
2022/08/11 09:15:13;;;;;;;3.03;2.70;;;31.10;99.90;;;;;;4862479;29;20207;-61
2022/08/11 09:17:48;;;;;;;3.15;2.63;;;31.30;99.90;;;;;;4856375;29;20277;-61
2022/08/11 09:20:20;;;;;;;8.90;2.83;;;31.50;99.50;;;;;;4853679;29;20211;-62
2022/08/11 09:28:48;;;;;;;2.90;2.70;;;32.20;97.70;;;;;;4852843;29;20229;-61
2022/08/11 09:31:21;;;;;;;3.28;3.05;;;32.30;98.00;;;;;;4859512;29;20636;-62
2022/08/11 09:33:54;;;;;;;7.97;2.67;;;32.50;96.70;;;;;;4859680;29;20294;-59
2022/08/11 09:42:00;;;;;;;2.95;2.55;;;33.10;96.20;;;;;;4854184;29;20223;-58
2022/08/11 09:44:48;;;;;;;4.22;2.80;;;33.40;94.90;;;;;;4853598;29;20276;-58
2022/08/11 09:47:25;;;;;;;3.50;2.70;;;33.50;94.70;;;;;;4852830;29;20208;-61
2022/08/11 09:49:58;;;;;;;3.05;2.65;;;33.40;94.90;;;;;;4850695;29;20207;-61
2022/08/11 09:52:32;;;;;;;2.60;2.40;;;33.60;94.30;;;;;;4860759;29;20211;-61
2022/08/11 09:55:02;;;;;;;8.10;2.63;;;33.70;95.20;;;;;;4850056;29;20246;-58
2022/08/11 10:00:17;;;;;;;2.40;2.20;;;34.20;93.90;;;;;;4848511;29;20265;-61
2022/08/11 10:03:12;;;;;;;2.90;2.70;;;34.40;94.60;;;;;;4852727;29;20218;-61
2022/08/11 10:08:42;;;;;;;4.25;2.15;;;34.30;93.20;;;;;;4815633;29;20231;-59
2022/08/11 10:11:15;;;;;;;5.55;2.65;;;34.80;92.10;;;;;;4853527;29;20215;-61
2022/08/11 10:16:53;;;;;;;4.65;2.30;;;34.90;91.50;;;;;;4852032;29;20203;-61
2022/08/11 10:19:24;;;;;;;2.58;2.30;;;35.20;91.00;;;;;;4855127;29;20291;-61
2022/08/11 10:27:24;;;;;;;2.42;2.22;;;35.60;90.50;;;;;;4853808;29;20240;-61
2022/08/11 10:36:08;;;;;;;5.45;2.60;;;36.30;87.90;;;;;;4848055;29;20247;-59
2022/08/11 10:38:45;;;;;;;3.80;2.45;;;36.90;85.90;;;;;;4848551;29;20192;-58
2022/08/11 10:44:02;;;;;;;3.88;2.88;;;36.50;86.50;;;;;;4850989;29;20287;-61
2022/08/11 10:49:18;;;;;;;2.80;2.60;;;36.90;84.90;;;;;;4847951;29;20247;-61
2022/08/11 11:00:30;;;;;;;6.28;2.58;;;36.60;82.40;;;;;;4835482;29;20192;-61
2022/08/11 11:03:00;;;;;;;7.22;2.63;;;36.30;82.30;;;;;;4844203;29;20925;-61
2022/08/11 11:05:50;;;;;;;9.40;2.72;;;36.10;81.80;;;;;;4848715;29;20238;-61
2022/08/11 11:08:54;;;;;;;2.80;2.63;;;35.70;83.30;;;;;;4866808;29;20226;-60
2022/08/11 11:20:17;;;;;;;4.50;2.50;;;36.30;82.20;;;;;;4851674;29;20207;-61
2022/08/11 11:23:08;;;;;;;3.10;2.47;;;36.10;81.20;;;;;;4847700;29;20835;-61
2022/08/11 11:26:08;;;;;;;2.70;2.50;;;36.20;80.70;;;;;;4853495;29;20207;-58
2022/08/11 11:29:09;;;;;;;5.25;2.33;;;36.40;81.90;;;;;;4844503;29;20219;-59
2022/08/11 11:31:51;;;;;;;2.90;2.72;;;36.40;77.30;;;;;;4852509;29;20239;-58
2022/08/11 11:34:39;;;;;;;3.00;2.65;;;35.40;77.80;;;;;;4849537;29;20272;-60
2022/08/11 11:37:23;;;;;;;2.65;2.38;;;35.20;80.40;;;;;;4848259;29;20782;-60
2022/08/11 11:39:51;;;;;;;5.07;2.50;;;35.40;82.10;;;;;;4851929;29;20227;-61
2022/08/11 11:42:22;;;;;;;5.50;2.60;;;35.60;79.40;;;;;;4848473;29;20675;-60
2022/08/11 11:44:51;;;;;;;2.70;2.50;;;35.60;80.80;;;;;;4858082;29;20278;-61
2022/08/11 11:47:25;;;;;;;2.80;2.60;;;35.50;79.60;;;;;;4850190;29;20199;-61
2022/08/11 11:49:54;;;;;;;3.15;2.60;;;35.30;79.40;;;;;;4850152;29;20679;-61
2022/08/11 11:52:24;;;;;;;3.10;2.80;;;35.00;79.10;;;;;;4855120;29;20211;-61
2022/08/11 11:54:57;;;;;;;3.60;2.60;;;34.60;78.90;;;;;;4847356;29;20206;-61
2022/08/11 12:03:21;;;;;;;3.42;2.60;;;34.60;80.10;;;;;;4849338;29;21032;-61
2022/08/11 12:05:52;;;;;;;4.50;2.70;;;34.60;78.10;;;;;;4849426;29;20225;-61
2022/08/11 12:08:22;;;;;;;7.97;2.72;;;34.30;80.60;;;;;;4854306;29;20210;-61
2022/08/11 12:13:42;;;;;;;2.75;2.70;;;34.50;79.20;;;;;;4847138;29;20209;-61
2022/08/11 12:16:13;;;;;;;3.50;2.80;;;34.70;82.60;;;;;;4850830;29;20291;-60
2022/08/11 12:19:02;;;;;;;3.05;2.70;;;34.70;79.40;;;;;;4852637;29;20688;-61
2022/08/11 12:21:31;;;;;;;2.85;2.50;;;34.40;80.20;;;;;;4852073;29;20199;-60
2022/08/11 12:29:48;;;;;;;3.55;2.50;;;33.60;77.50;;;;;;4854788;29;20219;-60
2022/08/11 12:32:25;;;;;;;3.08;2.65;;;33.70;80.30;;;;;;4859784;29;20222;-60
2022/08/11 12:34:55;;;;;;;2.85;2.53;;;33.90;78.70;;;;;;4850883;29;20727;-60
2022/08/11 12:37:30;;;;;;;7.80;2.75;;;33.90;79.30;;;;;;4861249;29;20238;-60
2022/08/11 12:46:13;;;;;;;3.15;2.95;;;33.70;81.70;;;;;;4857658;29;20616;-60
2022/08/11 12:54:57;;;;;;;4.10;2.80;;;33.50;80.60;;;;;;4852301;29;20273;-60
2022/08/11 13:05:57;;;;;;;6.07;2.70;;;33.70;79.10;;;;;;4853944;29;20390;-60
2022/08/11 13:08:28;;;;;;;3.85;2.83;;;33.50;82.50;;;;;;4854710;29;20238;-60
2022/08/11 13:13:46;;;;;;;2.80;2.60;;;33.20;80.70;;;;;;4862232;29;20214;-60
2022/08/11 13:16:28;;;;;;;6.90;3.00;;;33.40;80.70;;;;;;4848691;29;20308;-60
2022/08/11 13:18:59;;;;;;;3.30;2.50;;;33.60;79.70;;;;;;4856583;29;20289;-61
2022/08/11 13:21:29;;;;;;;2.83;2.63;;;33.40;79.00;;;;;;4850501;29;20208;-60
2022/08/11 13:23:58;;;;;;;7.00;2.63;;;33.40;79.70;;;;;;4847695;29;20215;-61
2022/08/11 13:26:36;;;;;;;4.22;2.85;;;33.60;82.40;;;;;;4856714;29;20211;-61
2022/08/11 13:29:21;;;;;;;6.07;2.88;;;33.90;81.70;;;;;;4854643;29;20222;-61
2022/08/11 13:31:51;;;;;;;3.30;3.00;;;34.00;80.40;;;;;;4850937;29;20294;-61
2022/08/11 13:34:24;;;;;;;3.88;2.95;;;34.00;80.70;;;;;;4845240;29;20307;-61
2022/08/11 13:36:54;;;;;;;2.90;2.80;;;34.20;81.80;;;;;;4855777;29;20325;-61
2022/08/11 13:39:25;;;;;;;3.22;2.90;;;34.30;79.10;;;;;;4858204;29;20242;-60
2022/08/11 13:41:55;;;;;;;4.70;2.70;;;34.10;79.10;;;;;;4857098;29;20212;-61
2022/08/11 13:44:27;;;;;;;3.97;2.95;;;34.00;79.10;;;;;;4866775;29;20218;-60
2022/08/11 13:46:59;;;;;;;3.15;2.92;;;34.10;80.10;;;;;;4854925;29;20207;-60
2022/08/11 13:49:31;;;;;;;3.72;2.83;;;34.10;81.40;;;;;;4860825;29;20212;-61
2022/08/11 13:52:01;;;;;;;2.97;2.78;;;34.30;81.80;;;;;;4852652;29;20627;-61
2022/08/11 13:54:32;;;;;;;3.15;2.95;;;34.40;78.40;;;;;;4856063;29;20204;-61
2022/08/11 13:57:04;;;;;;;2.85;2.33;;;34.30;77.00;;;;;;4862464;29;20699;-61
2022/08/11 13:59:37;;;;;;;3.83;2.65;;;34.30;79.20;;;;;;4855363;29;20278;-60
2022/08/11 14:02:27;;;;;;;5.55;3.00;;;34.30;76.30;;;;;;4856727;29;20215;-60
2022/08/11 14:05:05;;;;;;;2.72;2.60;;;34.50;77.70;;;;;;4857718;29;20287;-61
2022/08/11 14:07:37;;;;;;;5.18;2.47;;;34.50;75.60;;;;;;4848374;29;20216;-61
2022/08/11 14:10:09;;;;;;;3.45;2.90;;;34.80;80.40;;;;;;4855699;29;20219;-60
2022/08/11 14:15:32;;;;;;;5.18;2.45;;;34.90;78.80;;;;;;4838554;29;20252;-60
2022/08/11 14:18:05;;;;;;;9.27;2.70;;;35.30;78.90;;;;;;4850924;29;20216;-60
2022/08/11 14:23:27;;;;;;;2.70;2.50;;;35.80;77.30;;;;;;4846510;29;20307;-61
2022/08/11 14:28:43;;;;;;;2.40;2.30;;;35.10;72.40;;;;;;4856381;29;20713;-61
2022/08/11 14:31:14;;;;;;;2.30;2.22;;;35.00;72.80;;;;;;4853460;29;20228;-60
2022/08/11 14:33:44;;;;;;;2.30;2.20;;;35.00;72.20;;;;;;4853187;29;20192;-60
2022/08/11 14:36:38;;;;;;;2.10;2.00;;;34.80;70.80;;;;;;4846677;29;20231;-60
2022/08/11 14:39:11;;;;;;;2.42;2.25;;;34.60;71.60;;;;;;4847759;29;20280;-60
2022/08/11 14:47:34;;;;;;;5.30;2.30;;;35.00;72.10;;;;;;4852770;29;20211;-60
2022/08/11 14:50:05;;;;;;;4.10;2.33;;;35.00;71.20;;;;;;4855556;29;20219;-60
2022/08/11 14:52:45;;;;;;;4.25;2.53;;;35.20;71.80;;;;;;4856206;29;20227;-61
2022/08/11 14:58:02;;;;;;;2.53;2.33;;;35.20;69.40;;;;;;4848940;29;20212;-60
2022/08/11 15:00:32;;;;;;;4.85;2.10;;;35.10;70.70;;;;;;4847680;29;20211;-61
2022/08/11 15:03:11;;;;;;;2.58;2.38;;;35.30;71.50;;;;;;4853173;29;20199;-61
2022/08/11 15:05:46;;;;;;;4.18;2.10;;;35.50;73.40;;;;;;4849434;29;20206;-61
2022/08/11 15:14:05;;;;;;;3.15;2.75;;;35.60;70.40;;;;;;4850181;29;20922;-61
2022/08/11 15:19:31;;;;;;;2.55;2.30;;;35.80;73.90;;;;;;4842133;29;20198;-66
2022/08/11 15:25:00;;;;;;;3.55;2.58;;;35.80;70.50;;;;;;4848453;29;20648;-62
2022/08/11 15:38:43;;;;;;;2.40;2.20;;;35.10;69.80;;;;;;4842376;29;20266;-62
2022/08/11 15:47:18;;;;;;;2.28;2.17;;;35.60;72.60;;;;;;4844302;29;20223;-62
2022/08/11 15:49:51;;;;;;;5.07;2.58;;;35.80;70.40;;;;;;4841432;29;20236;-62
2022/08/11 15:52:47;;;;;;;2.00;1.90;;;35.70;68.80;;;;;;4829852;29;20204;-64
2022/08/11 15:55:16;;;;;;;3.67;2.35;;;35.70;70.70;;;;;;4841118;29;20211;-63
2022/08/11 16:06:39;;;;;;;4.15;2.30;;;35.50;70.50;;;;;;4860694;29;20252;-63
2022/08/11 16:09:20;;;;;;;5.65;2.40;;;35.60;72.80;;;;;;4847083;29;20286;-64
2022/08/11 16:11:50;;;;;;;2.35;2.22;;;35.50;70.00;;;;;;4847679;29;21012;-63
2022/08/11 16:17:12;;;;;;;4.88;2.60;;;34.90;71.60;;;;;;4851397;29;20791;-63
2022/08/11 16:19:42;;;;;;;2.50;2.40;;;35.00;70.30;;;;;;4847105;29;20192;-64
2022/08/11 16:22:13;;;;;;;3.80;2.53;;;35.10;70.40;;;;;;4849716;29;20299;-64
2022/08/11 16:24:44;;;;;;;4.28;2.60;;;35.20;71.50;;;;;;4848388;29;20242;-63
2022/08/11 16:27:38;;;;;;;3.67;2.70;;;35.20;72.50;;;;;;4844424;29;20854;-63
2022/08/11 16:30:10;;;;;;;3.90;2.33;;;35.30;72.70;;;;;;4847560;29;20220;-63
2022/08/11 16:32:41;;;;;;;3.20;2.40;;;35.50;72.70;;;;;;4848204;29;20226;-63
2022/08/11 16:40:52;;;;;;;3.80;2.53;;;35.20;71.60;;;;;;4849386;29;20220;-63
2022/08/11 16:49:01;;;;;;;6.43;2.80;;;34.70;72.90;;;;;;4859334;29;20763;-63
2022/08/11 16:51:31;;;;;;;5.28;2.90;;;34.60;72.20;;;;;;4842572;29;20215;-63
2022/08/11 16:54:00;;;;;;;3.03;2.72;;;34.70;72.60;;;;;;4861423;29;20222;-63
2022/08/11 16:56:37;;;;;;;5.47;2.92;;;34.60;73.10;;;;;;4852306;29;20766;-63
2022/08/11 16:59:19;;;;;;;3.45;2.85;;;34.60;74.90;;;;;;4849185;29;20252;-63
2022/08/11 17:01:55;;;;;;;2.75;2.53;;;34.60;72.70;;;;;;4854822;29;20238;-63
2022/08/11 17:13:23;;;;;;;2.65;2.55;;;33.90;71.40;;;;;;4845940;29;20775;-63
2022/08/11 17:16:10;;;;;;;4.00;2.80;;;33.80;73.10;;;;;;4844413;29;20237;-63
2022/08/11 17:18:48;;;;;;;3.10;2.72;;;33.90;72.20;;;;;;4848283;29;20226;-63
2022/08/11 17:21:20;;;;;;;2.75;2.65;;;33.70;70.90;;;;;;4848011;29;20246;-63
2022/08/11 17:23:53;;;;;;;2.72;2.50;;;33.80;71.40;;;;;;4853985;29;20233;-63
2022/08/11 17:26:53;;;;;;;8.73;2.75;;;33.90;72.90;;;;;;4847123;29;20234;-63
2022/08/11 17:29:23;;;;;;;5.43;2.80;;;33.80;71.70;;;;;;4849682;29;20246;-63
2022/08/11 17:37:44;;;;;;;2.60;2.50;;;33.80;71.50;;;;;;4817023;29;20222;-63
2022/08/11 17:40:17;;;;;;;3.08;2.55;;;33.90;73.00;;;;;;4845366;29;20311;-63
2022/08/11 17:48:26;;;;;;;6.07;2.90;;;33.60;71.40;;;;;;4849872;29;20226;-63
2022/08/11 17:50:59;;;;;;;3.72;2.65;;;33.40;71.90;;;;;;4842556;29;20541;-63
2022/08/11 18:05:05;;;;;;;4.45;2.67;;;32.90;73.20;;;;;;4854968;29;20236;-63
